sensor_id;sensor_type;location;lat;lon;timestamp;P1;durP1;ratioP1;P2;durP2;ratioP2
85131;SDS011;75493;51.772;19.464;2024-02-28T00:01:32;39.55;;;23.52;;
85131;SDS011;75493;51.772;19.464;2024-02-28T00:03:58;37.42;;;21.88;;
85131;SDS011;75493;51.772;19.464;2024-02-28T00:06:24;39.30;;;21.13;;
85131;SDS011;75493;51.772;19.464;2024-02-28T00:08:50;39.10;;;20.95;;
85131;SDS011;75493;51.772;19.464;2024-02-28T00:11:19;38.83;;;21.30;;
85131;SDS011;75493;51.772;19.464;2024-02-28T00:13:45;35.55;;;21.50;;
85131;SDS011;75493;51.772;19.464;2024-02-28T00:16:11;37.42;;;22.25;;
85131;SDS011;75493;51.772;19.464;2024-02-28T00:18:37;37.70;;;20.52;;
85131;SDS011;75493;51.772;19.464;2024-02-28T00:21:03;39.45;;;20.70;;
85131;SDS011;75493;51.772;19.464;2024-02-28T00:23:29;39.17;;;21.50;;
85131;SDS011;75493;51.772;19.464;2024-02-28T00:25:56;38.40;;;22.00;;
85131;SDS011;75493;51.772;19.464;2024-02-28T00:28:22;37.72;;;20.42;;
85131;SDS011;75493;51.772;19.464;2024-02-28T00:30:48;42.65;;;23.13;;
85131;SDS011;75493;51.772;19.464;2024-02-28T00:33:14;35.30;;;20.77;;
85131;SDS011;75493;51.772;19.464;2024-02-28T00:35:40;39.45;;;21.40;;
85131;SDS011;75493;51.772;19.464;2024-02-28T00:38:06;35.45;;;20.88;;
85131;SDS011;75493;51.772;19.464;2024-02-28T00:40:31;38.85;;;21.50;;
85131;SDS011;75493;51.772;19.464;2024-02-28T00:42:57;40.17;;;23.45;;
85131;SDS011;75493;51.772;19.464;2024-02-28T00:45:23;41.40;;;22.35;;
85131;SDS011;75493;51.772;19.464;2024-02-28T00:47:49;42.05;;;24.00;;
85131;SDS011;75493;51.772;19.464;2024-02-28T00:50:15;49.72;;;24.48;;
85131;SDS011;75493;51.772;19.464;2024-02-28T00:52:41;43.65;;;25.10;;
85131;SDS011;75493;51.772;19.464;2024-02-28T00:55:07;42.95;;;26.00;;
85131;SDS011;75493;51.772;19.464;2024-02-28T00:57:33;45.30;;;26.67;;
85131;SDS011;75493;51.772;19.464;2024-02-28T00:59:59;46.88;;;26.73;;
85131;SDS011;75493;51.772;19.464;2024-02-28T01:02:25;48.60;;;27.13;;
85131;SDS011;75493;51.772;19.464;2024-02-28T01:04:51;48.05;;;27.35;;
85131;SDS011;75493;51.772;19.464;2024-02-28T01:07:17;48.53;;;26.67;;
85131;SDS011;75493;51.772;19.464;2024-02-28T01:09:43;49.92;;;27.15;;
85131;SDS011;75493;51.772;19.464;2024-02-28T01:12:09;51.17;;;27.42;;
85131;SDS011;75493;51.772;19.464;2024-02-28T01:14:35;46.13;;;26.95;;
85131;SDS011;75493;51.772;19.464;2024-02-28T01:17:01;48.08;;;26.75;;
85131;SDS011;75493;51.772;19.464;2024-02-28T01:19:27;53.22;;;28.23;;
85131;SDS011;75493;51.772;19.464;2024-02-28T01:21:53;49.05;;;26.63;;
85131;SDS011;75493;51.772;19.464;2024-02-28T01:24:19;49.05;;;28.35;;
85131;SDS011;75493;51.772;19.464;2024-02-28T01:26:45;48.05;;;27.13;;
85131;SDS011;75493;51.772;19.464;2024-02-28T01:29:11;49.22;;;27.95;;
85131;SDS011;75493;51.772;19.464;2024-02-28T01:31:37;51.65;;;29.58;;
85131;SDS011;75493;51.772;19.464;2024-02-28T01:34:03;53.63;;;30.55;;
85131;SDS011;75493;51.772;19.464;2024-02-28T01:36:29;54.47;;;30.00;;
85131;SDS011;75493;51.772;19.464;2024-02-28T01:38:55;51.90;;;28.27;;
85131;SDS011;75493;51.772;19.464;2024-02-28T01:41:21;55.28;;;31.10;;
85131;SDS011;75493;51.772;19.464;2024-02-28T01:43:47;53.70;;;29.42;;
85131;SDS011;75493;51.772;19.464;2024-02-28T01:46:22;52.55;;;30.27;;
85131;SDS011;75493;51.772;19.464;2024-02-28T01:48:49;54.40;;;30.75;;
85131;SDS011;75493;51.772;19.464;2024-02-28T01:51:15;52.97;;;31.33;;
85131;SDS011;75493;51.772;19.464;2024-02-28T01:53:42;53.58;;;31.67;;
85131;SDS011;75493;51.772;19.464;2024-02-28T01:56:08;60.92;;;32.97;;
85131;SDS011;75493;51.772;19.464;2024-02-28T01:58:34;56.33;;;32.20;;
85131;SDS011;75493;51.772;19.464;2024-02-28T02:01:00;57.08;;;31.75;;
85131;SDS011;75493;51.772;19.464;2024-02-28T02:03:26;49.67;;;29.52;;
85131;SDS011;75493;51.772;19.464;2024-02-28T02:05:52;56.08;;;30.42;;
85131;SDS011;75493;51.772;19.464;2024-02-28T02:08:18;53.10;;;29.25;;
85131;SDS011;75493;51.772;19.464;2024-02-28T02:10:44;51.53;;;30.67;;
85131;SDS011;75493;51.772;19.464;2024-02-28T02:13:10;54.92;;;31.40;;
85131;SDS011;75493;51.772;19.464;2024-02-28T02:15:36;54.88;;;29.88;;
85131;SDS011;75493;51.772;19.464;2024-02-28T02:18:03;58.15;;;30.80;;
85131;SDS011;75493;51.772;19.464;2024-02-28T02:20:30;50.78;;;31.17;;
85131;SDS011;75493;51.772;19.464;2024-02-28T02:22:56;56.60;;;31.45;;
85131;SDS011;75493;51.772;19.464;2024-02-28T02:25:21;51.88;;;31.52;;
85131;SDS011;75493;51.772;19.464;2024-02-28T02:27:48;54.50;;;29.88;;
85131;SDS011;75493;51.772;19.464;2024-02-28T02:30:14;51.65;;;30.13;;
85131;SDS011;75493;51.772;19.464;2024-02-28T02:32:40;50.30;;;29.52;;
85131;SDS011;75493;51.772;19.464;2024-02-28T02:35:06;53.28;;;29.02;;
85131;SDS011;75493;51.772;19.464;2024-02-28T02:37:32;51.60;;;28.70;;
85131;SDS011;75493;51.772;19.464;2024-02-28T02:39:58;52.80;;;29.05;;
85131;SDS011;75493;51.772;19.464;2024-02-28T02:42:24;53.35;;;30.17;;
85131;SDS011;75493;51.772;19.464;2024-02-28T02:44:50;56.60;;;29.20;;
85131;SDS011;75493;51.772;19.464;2024-02-28T02:47:16;53.10;;;29.08;;
85131;SDS011;75493;51.772;19.464;2024-02-28T02:49:42;55.25;;;29.00;;
85131;SDS011;75493;51.772;19.464;2024-02-28T02:52:08;53.50;;;29.25;;
85131;SDS011;75493;51.772;19.464;2024-02-28T02:54:34;51.67;;;28.58;;
85131;SDS011;75493;51.772;19.464;2024-02-28T02:57:01;50.88;;;28.92;;
85131;SDS011;75493;51.772;19.464;2024-02-28T02:59:27;51.70;;;28.13;;
85131;SDS011;75493;51.772;19.464;2024-02-28T03:01:53;47.40;;;27.23;;
85131;SDS011;75493;51.772;19.464;2024-02-28T03:04:19;44.13;;;24.95;;
85131;SDS011;75493;51.772;19.464;2024-02-28T03:06:45;42.08;;;23.90;;
85131;SDS011;75493;51.772;19.464;2024-02-28T03:09:11;45.05;;;25.52;;
85131;SDS011;75493;51.772;19.464;2024-02-28T03:11:37;44.20;;;25.00;;
85131;SDS011;75493;51.772;19.464;2024-02-28T03:14:03;42.53;;;25.70;;
85131;SDS011;75493;51.772;19.464;2024-02-28T03:16:29;40.45;;;22.50;;
85131;SDS011;75493;51.772;19.464;2024-02-28T03:18:55;42.60;;;23.67;;
85131;SDS011;75493;51.772;19.464;2024-02-28T03:21:22;41.85;;;23.02;;
85131;SDS011;75493;51.772;19.464;2024-02-28T03:23:47;43.17;;;23.77;;
85131;SDS011;75493;51.772;19.464;2024-02-28T03:26:13;44.90;;;25.38;;
85131;SDS011;75493;51.772;19.464;2024-02-28T03:28:39;41.22;;;23.00;;
85131;SDS011;75493;51.772;19.464;2024-02-28T03:31:05;45.00;;;24.50;;
85131;SDS011;75493;51.772;19.464;2024-02-28T03:33:31;46.60;;;24.83;;
85131;SDS011;75493;51.772;19.464;2024-02-28T03:35:58;39.05;;;23.52;;
85131;SDS011;75493;51.772;19.464;2024-02-28T03:38:24;42.60;;;25.35;;
85131;SDS011;75493;51.772;19.464;2024-02-28T03:40:50;44.08;;;24.05;;
85131;SDS011;75493;51.772;19.464;2024-02-28T03:43:16;45.42;;;25.15;;
85131;SDS011;75493;51.772;19.464;2024-02-28T03:45:42;47.47;;;24.80;;
85131;SDS011;75493;51.772;19.464;2024-02-28T03:48:08;46.22;;;25.67;;
85131;SDS011;75493;51.772;19.464;2024-02-28T03:50:34;44.72;;;25.15;;
85131;SDS011;75493;51.772;19.464;2024-02-28T03:53:00;45.47;;;25.90;;
85131;SDS011;75493;51.772;19.464;2024-02-28T03:55:26;46.58;;;26.50;;
85131;SDS011;75493;51.772;19.464;2024-02-28T03:57:52;42.38;;;25.27;;
85131;SDS011;75493;51.772;19.464;2024-02-28T04:00:18;48.17;;;25.42;;
85131;SDS011;75493;51.772;19.464;2024-02-28T04:02:44;46.42;;;26.70;;
85131;SDS011;75493;51.772;19.464;2024-02-28T04:05:10;44.78;;;25.98;;
85131;SDS011;75493;51.772;19.464;2024-02-28T04:07:37;102.20;;;59.03;;
85131;SDS011;75493;51.772;19.464;2024-02-28T04:10:03;121.38;;;80.50;;
85131;SDS011;75493;51.772;19.464;2024-02-28T04:12:30;469.60;;;298.67;;
85131;SDS011;75493;51.772;19.464;2024-02-28T04:14:56;478.25;;;270.67;;
85131;SDS011;75493;51.772;19.464;2024-02-28T04:17:22;570.08;;;306.60;;
85131;SDS011;75493;51.772;19.464;2024-02-28T04:19:48;658.45;;;341.88;;
85131;SDS011;75493;51.772;19.464;2024-02-28T04:22:14;687.65;;;353.05;;
85131;SDS011;75493;51.772;19.464;2024-02-28T04:24:40;558.38;;;307.55;;
85131;SDS011;75493;51.772;19.464;2024-02-28T04:27:06;495.13;;;275.52;;
85131;SDS011;75493;51.772;19.464;2024-02-28T04:29:34;278.98;;;148.55;;
85131;SDS011;75493;51.772;19.464;2024-02-28T04:32:00;191.45;;;102.70;;
85131;SDS011;75493;51.772;19.464;2024-02-28T04:34:26;132.63;;;68.65;;
85131;SDS011;75493;51.772;19.464;2024-02-28T04:36:52;85.95;;;45.08;;
85131;SDS011;75493;51.772;19.464;2024-02-28T04:39:18;62.95;;;35.67;;
85131;SDS011;75493;51.772;19.464;2024-02-28T04:41:44;57.97;;;32.35;;
85131;SDS011;75493;51.772;19.464;2024-02-28T04:44:10;55.08;;;30.52;;
85131;SDS011;75493;51.772;19.464;2024-02-28T04:46:36;55.58;;;29.65;;
85131;SDS011;75493;51.772;19.464;2024-02-28T04:49:02;57.53;;;31.33;;
85131;SDS011;75493;51.772;19.464;2024-02-28T04:51:29;52.25;;;29.30;;
85131;SDS011;75493;51.772;19.464;2024-02-28T04:53:55;53.60;;;29.02;;
85131;SDS011;75493;51.772;19.464;2024-02-28T04:56:21;54.60;;;31.25;;
85131;SDS011;75493;51.772;19.464;2024-02-28T04:58:47;56.90;;;30.48;;
85131;SDS011;75493;51.772;19.464;2024-02-28T05:01:12;56.63;;;32.08;;
85131;SDS011;75493;51.772;19.464;2024-02-28T05:03:38;54.30;;;30.88;;
85131;SDS011;75493;51.772;19.464;2024-02-28T05:06:04;60.55;;;31.88;;
85131;SDS011;75493;51.772;19.464;2024-02-28T05:08:30;63.03;;;32.63;;
85131;SDS011;75493;51.772;19.464;2024-02-28T05:10:56;66.43;;;33.75;;
85131;SDS011;75493;51.772;19.464;2024-02-28T05:13:22;65.05;;;32.58;;
85131;SDS011;75493;51.772;19.464;2024-02-28T05:15:49;60.25;;;32.55;;
85131;SDS011;75493;51.772;19.464;2024-02-28T05:18:15;64.82;;;33.47;;
85131;SDS011;75493;51.772;19.464;2024-02-28T05:20:41;65.25;;;34.40;;
85131;SDS011;75493;51.772;19.464;2024-02-28T05:23:07;63.05;;;33.85;;
85131;SDS011;75493;51.772;19.464;2024-02-28T05:25:33;58.35;;;31.85;;
85131;SDS011;75493;51.772;19.464;2024-02-28T05:27:59;60.35;;;31.48;;
85131;SDS011;75493;51.772;19.464;2024-02-28T05:30:25;62.40;;;34.17;;
85131;SDS011;75493;51.772;19.464;2024-02-28T05:32:51;59.20;;;31.08;;
85131;SDS011;75493;51.772;19.464;2024-02-28T05:35:17;61.13;;;33.30;;
85131;SDS011;75493;51.772;19.464;2024-02-28T05:37:44;59.20;;;32.63;;
85131;SDS011;75493;51.772;19.464;2024-02-28T05:40:11;56.38;;;28.92;;
85131;SDS011;75493;51.772;19.464;2024-02-28T05:42:38;59.63;;;32.00;;
85131;SDS011;75493;51.772;19.464;2024-02-28T05:45:04;56.90;;;33.20;;
85131;SDS011;75493;51.772;19.464;2024-02-28T05:47:30;62.17;;;33.63;;
85131;SDS011;75493;51.772;19.464;2024-02-28T05:49:56;60.03;;;33.15;;
85131;SDS011;75493;51.772;19.464;2024-02-28T05:52:23;65.88;;;32.03;;
85131;SDS011;75493;51.772;19.464;2024-02-28T05:54:50;66.80;;;34.58;;
85131;SDS011;75493;51.772;19.464;2024-02-28T05:57:16;62.70;;;35.13;;
85131;SDS011;75493;51.772;19.464;2024-02-28T05:59:42;62.80;;;34.45;;
85131;SDS011;75493;51.772;19.464;2024-02-28T06:02:08;59.63;;;31.80;;
85131;SDS011;75493;51.772;19.464;2024-02-28T06:04:34;62.70;;;34.42;;
85131;SDS011;75493;51.772;19.464;2024-02-28T06:07:00;66.72;;;34.92;;
85131;SDS011;75493;51.772;19.464;2024-02-28T06:09:26;66.93;;;34.45;;
85131;SDS011;75493;51.772;19.464;2024-02-28T06:11:55;66.32;;;36.15;;
85131;SDS011;75493;51.772;19.464;2024-02-28T06:14:21;70.15;;;35.03;;
85131;SDS011;75493;51.772;19.464;2024-02-28T06:16:47;65.25;;;34.63;;
85131;SDS011;75493;51.772;19.464;2024-02-28T06:19:13;62.00;;;33.13;;
85131;SDS011;75493;51.772;19.464;2024-02-28T06:21:39;62.28;;;34.45;;
85131;SDS011;75493;51.772;19.464;2024-02-28T06:24:05;62.67;;;33.28;;
85131;SDS011;75493;51.772;19.464;2024-02-28T06:26:31;63.90;;;31.48;;
85131;SDS011;75493;51.772;19.464;2024-02-28T06:28:57;66.22;;;35.03;;
85131;SDS011;75493;51.772;19.464;2024-02-28T06:31:26;59.70;;;31.02;;
85131;SDS011;75493;51.772;19.464;2024-02-28T06:33:56;57.28;;;32.58;;
85131;SDS011;75493;51.772;19.464;2024-02-28T06:36:22;54.03;;;28.92;;
85131;SDS011;75493;51.772;19.464;2024-02-28T06:38:48;57.05;;;30.25;;
85131;SDS011;75493;51.772;19.464;2024-02-28T06:41:14;58.42;;;31.05;;
85131;SDS011;75493;51.772;19.464;2024-02-28T06:43:41;52.50;;;29.83;;
85131;SDS011;75493;51.772;19.464;2024-02-28T06:46:07;54.55;;;30.52;;
85131;SDS011;75493;51.772;19.464;2024-02-28T06:48:34;52.97;;;28.83;;
85131;SDS011;75493;51.772;19.464;2024-02-28T06:51:00;51.67;;;29.02;;
85131;SDS011;75493;51.772;19.464;2024-02-28T06:53:26;47.72;;;28.35;;
85131;SDS011;75493;51.772;19.464;2024-02-28T06:55:52;53.33;;;27.27;;
85131;SDS011;75493;51.772;19.464;2024-02-28T06:58:18;50.85;;;29.50;;
85131;SDS011;75493;51.772;19.464;2024-02-28T07:00:44;54.33;;;28.30;;
85131;SDS011;75493;51.772;19.464;2024-02-28T07:03:10;49.15;;;29.52;;
85131;SDS011;75493;51.772;19.464;2024-02-28T07:05:36;59.78;;;30.98;;
85131;SDS011;75493;51.772;19.464;2024-02-28T07:08:02;49.83;;;27.80;;
85131;SDS011;75493;51.772;19.464;2024-02-28T07:10:28;56.92;;;29.88;;
85131;SDS011;75493;51.772;19.464;2024-02-28T07:12:54;53.45;;;29.30;;
85131;SDS011;75493;51.772;19.464;2024-02-28T07:15:20;51.05;;;27.70;;
85131;SDS011;75493;51.772;19.464;2024-02-28T07:17:46;47.70;;;28.65;;
85131;SDS011;75493;51.772;19.464;2024-02-28T07:20:12;55.38;;;29.63;;
85131;SDS011;75493;51.772;19.464;2024-02-28T07:22:38;49.65;;;27.90;;
85131;SDS011;75493;51.772;19.464;2024-02-28T07:25:05;50.13;;;26.55;;
85131;SDS011;75493;51.772;19.464;2024-02-28T07:27:32;47.30;;;26.38;;
85131;SDS011;75493;51.772;19.464;2024-02-28T07:29:58;49.70;;;26.83;;
85131;SDS011;75493;51.772;19.464;2024-02-28T07:32:24;51.42;;;25.85;;
85131;SDS011;75493;51.772;19.464;2024-02-28T07:34:50;48.15;;;26.50;;
85131;SDS011;75493;51.772;19.464;2024-02-28T07:37:16;46.60;;;24.20;;
85131;SDS011;75493;51.772;19.464;2024-02-28T07:39:42;47.92;;;24.73;;
85131;SDS011;75493;51.772;19.464;2024-02-28T07:42:08;46.00;;;26.85;;
85131;SDS011;75493;51.772;19.464;2024-02-28T07:44:34;51.40;;;27.52;;
85131;SDS011;75493;51.772;19.464;2024-02-28T07:47:00;50.35;;;28.95;;
85131;SDS011;75493;51.772;19.464;2024-02-28T07:49:26;51.85;;;26.50;;
85131;SDS011;75493;51.772;19.464;2024-02-28T07:51:52;47.38;;;27.17;;
85131;SDS011;75493;51.772;19.464;2024-02-28T07:54:18;49.33;;;27.25;;
85131;SDS011;75493;51.772;19.464;2024-02-28T07:56:44;49.78;;;25.92;;
85131;SDS011;75493;51.772;19.464;2024-02-28T07:59:10;54.00;;;26.98;;
85131;SDS011;75493;51.772;19.464;2024-02-28T08:01:36;56.65;;;29.02;;
85131;SDS011;75493;51.772;19.464;2024-02-28T08:04:04;54.95;;;29.50;;
85131;SDS011;75493;51.772;19.464;2024-02-28T08:06:30;55.85;;;29.58;;
85131;SDS011;75493;51.772;19.464;2024-02-28T08:08:58;54.05;;;28.15;;
85131;SDS011;75493;51.772;19.464;2024-02-28T08:11:24;46.58;;;27.30;;
85131;SDS011;75493;51.772;19.464;2024-02-28T08:13:51;53.20;;;26.08;;
85131;SDS011;75493;51.772;19.464;2024-02-28T08:16:17;51.83;;;26.52;;
85131;SDS011;75493;51.772;19.464;2024-02-28T08:18:43;51.67;;;27.13;;
85131;SDS011;75493;51.772;19.464;2024-02-28T08:21:09;54.92;;;28.40;;
85131;SDS011;75493;51.772;19.464;2024-02-28T08:23:35;54.20;;;27.98;;
85131;SDS011;75493;51.772;19.464;2024-02-28T08:26:01;49.88;;;26.83;;
85131;SDS011;75493;51.772;19.464;2024-02-28T08:28:28;50.25;;;25.92;;
85131;SDS011;75493;51.772;19.464;2024-02-28T08:30:54;57.47;;;29.80;;
85131;SDS011;75493;51.772;19.464;2024-02-28T08:33:20;53.33;;;28.73;;
85131;SDS011;75493;51.772;19.464;2024-02-28T08:35:46;52.30;;;28.80;;
85131;SDS011;75493;51.772;19.464;2024-02-28T08:38:15;54.00;;;28.10;;
85131;SDS011;75493;51.772;19.464;2024-02-28T08:40:40;51.92;;;27.58;;
85131;SDS011;75493;51.772;19.464;2024-02-28T08:43:06;51.58;;;27.58;;
85131;SDS011;75493;51.772;19.464;2024-02-28T08:45:32;51.28;;;28.52;;
85131;SDS011;75493;51.772;19.464;2024-02-28T08:47:59;50.22;;;27.35;;
85131;SDS011;75493;51.772;19.464;2024-02-28T08:50:26;49.03;;;27.45;;
85131;SDS011;75493;51.772;19.464;2024-02-28T08:52:52;50.70;;;26.98;;
85131;SDS011;75493;51.772;19.464;2024-02-28T08:55:18;51.40;;;27.27;;
85131;SDS011;75493;51.772;19.464;2024-02-28T08:57:46;49.20;;;27.60;;
85131;SDS011;75493;51.772;19.464;2024-02-28T09:00:12;47.85;;;25.45;;
85131;SDS011;75493;51.772;19.464;2024-02-28T09:02:40;48.92;;;26.23;;
85131;SDS011;75493;51.772;19.464;2024-02-28T09:05:06;52.75;;;26.35;;
85131;SDS011;75493;51.772;19.464;2024-02-28T09:07:32;49.65;;;27.20;;
85131;SDS011;75493;51.772;19.464;2024-02-28T09:10:01;47.63;;;26.17;;
85131;SDS011;75493;51.772;19.464;2024-02-28T09:12:27;53.70;;;28.38;;
85131;SDS011;75493;51.772;19.464;2024-02-28T09:14:52;49.85;;;26.00;;
85131;SDS011;75493;51.772;19.464;2024-02-28T09:17:22;45.15;;;25.52;;
85131;SDS011;75493;51.772;19.464;2024-02-28T09:19:48;44.60;;;24.80;;
85131;SDS011;75493;51.772;19.464;2024-02-28T09:22:14;46.83;;;24.38;;
85131;SDS011;75493;51.772;19.464;2024-02-28T09:24:41;45.78;;;25.35;;
85131;SDS011;75493;51.772;19.464;2024-02-28T09:27:07;50.63;;;25.67;;
85131;SDS011;75493;51.772;19.464;2024-02-28T09:29:33;45.55;;;26.33;;
85131;SDS011;75493;51.772;19.464;2024-02-28T09:31:59;51.53;;;26.83;;
85131;SDS011;75493;51.772;19.464;2024-02-28T09:34:26;53.58;;;29.02;;
85131;SDS011;75493;51.772;19.464;2024-02-28T09:36:51;50.92;;;26.42;;
85131;SDS011;75493;51.772;19.464;2024-02-28T09:39:17;48.50;;;27.25;;
85131;SDS011;75493;51.772;19.464;2024-02-28T09:41:44;47.15;;;25.40;;
85131;SDS011;75493;51.772;19.464;2024-02-28T09:44:14;45.10;;;25.00;;
85131;SDS011;75493;51.772;19.464;2024-02-28T09:46:40;44.22;;;25.27;;
85131;SDS011;75493;51.772;19.464;2024-02-28T09:49:07;40.70;;;22.52;;
85131;SDS011;75493;51.772;19.464;2024-02-28T09:51:35;42.90;;;23.00;;
85131;SDS011;75493;51.772;19.464;2024-02-28T09:54:04;39.70;;;21.00;;
85131;SDS011;75493;51.772;19.464;2024-02-28T09:56:31;41.35;;;22.30;;
85131;SDS011;75493;51.772;19.464;2024-02-28T09:58:57;41.08;;;21.05;;
85131;SDS011;75493;51.772;19.464;2024-02-28T10:01:23;40.00;;;21.80;;
85131;SDS011;75493;51.772;19.464;2024-02-28T10:03:51;38.55;;;22.45;;
85131;SDS011;75493;51.772;19.464;2024-02-28T10:06:21;44.78;;;24.38;;
85131;SDS011;75493;51.772;19.464;2024-02-28T10:08:47;45.55;;;23.15;;
85131;SDS011;75493;51.772;19.464;2024-02-28T10:11:17;43.17;;;22.30;;
85131;SDS011;75493;51.772;19.464;2024-02-28T10:13:43;37.35;;;20.35;;
85131;SDS011;75493;51.772;19.464;2024-02-28T10:16:09;44.03;;;22.58;;
85131;SDS011;75493;51.772;19.464;2024-02-28T10:18:35;40.88;;;23.48;;
85131;SDS011;75493;51.772;19.464;2024-02-28T10:21:01;43.55;;;22.90;;
85131;SDS011;75493;51.772;19.464;2024-02-28T10:23:28;44.95;;;24.63;;
85131;SDS011;75493;51.772;19.464;2024-02-28T10:25:54;46.13;;;23.80;;
85131;SDS011;75493;51.772;19.464;2024-02-28T10:28:21;39.83;;;23.65;;
85131;SDS011;75493;51.772;19.464;2024-02-28T10:30:47;49.95;;;27.77;;
85131;SDS011;75493;51.772;19.464;2024-02-28T10:33:13;54.70;;;27.98;;
85131;SDS011;75493;51.772;19.464;2024-02-28T10:35:40;44.70;;;25.65;;
85131;SDS011;75493;51.772;19.464;2024-02-28T10:38:07;47.08;;;26.20;;
85131;SDS011;75493;51.772;19.464;2024-02-28T10:40:33;48.28;;;27.83;;
85131;SDS011;75493;51.772;19.464;2024-02-28T10:45:35;48.30;;;26.83;;
85131;SDS011;75493;51.772;19.464;2024-02-28T10:48:03;44.80;;;26.20;;
85131;SDS011;75493;51.772;19.464;2024-02-28T10:50:30;44.92;;;25.00;;
85131;SDS011;75493;51.772;19.464;2024-02-28T10:52:57;41.83;;;23.48;;
85131;SDS011;75493;51.772;19.464;2024-02-28T10:55:27;40.83;;;23.90;;
85131;SDS011;75493;51.772;19.464;2024-02-28T10:57:58;42.20;;;24.30;;
85131;SDS011;75493;51.772;19.464;2024-02-28T11:00:27;43.42;;;25.27;;
85131;SDS011;75493;51.772;19.464;2024-02-28T11:02:54;41.80;;;24.23;;
85131;SDS011;75493;51.772;19.464;2024-02-28T11:05:20;44.05;;;23.80;;
85131;SDS011;75493;51.772;19.464;2024-02-28T11:10:23;42.47;;;23.75;;
85131;SDS011;75493;51.772;19.464;2024-02-28T11:12:54;42.80;;;21.30;;
85131;SDS011;75493;51.772;19.464;2024-02-28T11:15:20;42.42;;;24.05;;
85131;SDS011;75493;51.772;19.464;2024-02-28T11:17:52;39.15;;;21.90;;
85131;SDS011;75493;51.772;19.464;2024-02-28T11:20:18;43.15;;;22.75;;
85131;SDS011;75493;51.772;19.464;2024-02-28T11:22:44;37.60;;;21.35;;
85131;SDS011;75493;51.772;19.464;2024-02-28T11:25:10;35.58;;;21.17;;
85131;SDS011;75493;51.772;19.464;2024-02-28T11:27:46;37.70;;;21.52;;
85131;SDS011;75493;51.772;19.464;2024-02-28T11:30:12;35.67;;;17.95;;
85131;SDS011;75493;51.772;19.464;2024-02-28T11:32:39;33.92;;;18.52;;
85131;SDS011;75493;51.772;19.464;2024-02-28T11:35:05;29.92;;;16.63;;
85131;SDS011;75493;51.772;19.464;2024-02-28T11:37:31;30.40;;;16.85;;
85131;SDS011;75493;51.772;19.464;2024-02-28T11:39:57;28.35;;;16.05;;
85131;SDS011;75493;51.772;19.464;2024-02-28T11:42:23;30.00;;;16.90;;
85131;SDS011;75493;51.772;19.464;2024-02-28T11:44:52;30.85;;;16.67;;
85131;SDS011;75493;51.772;19.464;2024-02-28T11:47:20;32.42;;;17.83;;
85131;SDS011;75493;51.772;19.464;2024-02-28T11:49:46;31.58;;;16.75;;
85131;SDS011;75493;51.772;19.464;2024-02-28T11:52:12;32.67;;;17.52;;
85131;SDS011;75493;51.772;19.464;2024-02-28T11:54:39;28.65;;;16.73;;
85131;SDS011;75493;51.772;19.464;2024-02-28T11:57:05;27.13;;;15.60;;
85131;SDS011;75493;51.772;19.464;2024-02-28T11:59:31;30.10;;;15.23;;
85131;SDS011;75493;51.772;19.464;2024-02-28T12:01:57;30.50;;;16.13;;
85131;SDS011;75493;51.772;19.464;2024-02-28T12:04:26;28.08;;;17.85;;
85131;SDS011;75493;51.772;19.464;2024-02-28T12:06:52;29.48;;;16.40;;
85131;SDS011;75493;51.772;19.464;2024-02-28T12:09:18;30.17;;;16.83;;
85131;SDS011;75493;51.772;19.464;2024-02-28T12:11:44;26.35;;;15.32;;
85131;SDS011;75493;51.772;19.464;2024-02-28T12:14:10;30.00;;;17.80;;
85131;SDS011;75493;51.772;19.464;2024-02-28T12:16:38;27.25;;;14.85;;
85131;SDS011;75493;51.772;19.464;2024-02-28T12:19:08;27.73;;;14.82;;
85131;SDS011;75493;51.772;19.464;2024-02-28T12:21:34;29.55;;;16.88;;
85131;SDS011;75493;51.772;19.464;2024-02-28T12:24:00;34.10;;;17.90;;
85131;SDS011;75493;51.772;19.464;2024-02-28T12:26:26;28.52;;;15.32;;
85131;SDS011;75493;51.772;19.464;2024-02-28T12:28:53;28.60;;;14.95;;
85131;SDS011;75493;51.772;19.464;2024-02-28T12:31:19;24.67;;;13.73;;
85131;SDS011;75493;51.772;19.464;2024-02-28T12:33:46;28.80;;;14.85;;
85131;SDS011;75493;51.772;19.464;2024-02-28T12:36:12;28.65;;;15.27;;
85131;SDS011;75493;51.772;19.464;2024-02-28T12:38:38;28.40;;;15.35;;
85131;SDS011;75493;51.772;19.464;2024-02-28T12:41:06;27.20;;;13.82;;
85131;SDS011;75493;51.772;19.464;2024-02-28T12:43:32;25.98;;;13.73;;
85131;SDS011;75493;51.772;19.464;2024-02-28T12:45:58;28.23;;;13.55;;
85131;SDS011;75493;51.772;19.464;2024-02-28T12:48:24;26.70;;;14.32;;
85131;SDS011;75493;51.772;19.464;2024-02-28T12:50:50;24.65;;;13.75;;
85131;SDS011;75493;51.772;19.464;2024-02-28T12:53:16;25.52;;;12.27;;
85131;SDS011;75493;51.772;19.464;2024-02-28T12:55:42;30.77;;;12.85;;
85131;SDS011;75493;51.772;19.464;2024-02-28T12:58:10;26.92;;;12.75;;
85131;SDS011;75493;51.772;19.464;2024-02-28T13:00:36;20.23;;;11.32;;
85131;SDS011;75493;51.772;19.464;2024-02-28T13:03:02;22.38;;;11.75;;
85131;SDS011;75493;51.772;19.464;2024-02-28T13:05:28;20.25;;;12.38;;
85131;SDS011;75493;51.772;19.464;2024-02-28T13:07:54;24.42;;;13.13;;
85131;SDS011;75493;51.772;19.464;2024-02-28T13:10:20;22.63;;;12.07;;
85131;SDS011;75493;51.772;19.464;2024-02-28T13:12:47;22.20;;;11.45;;
85131;SDS011;75493;51.772;19.464;2024-02-28T13:15:13;18.48;;;9.73;;
85131;SDS011;75493;51.772;19.464;2024-02-28T13:17:39;19.67;;;10.63;;
85131;SDS011;75493;51.772;19.464;2024-02-28T13:20:06;19.42;;;10.82;;
85131;SDS011;75493;51.772;19.464;2024-02-28T13:22:33;19.27;;;10.75;;
85131;SDS011;75493;51.772;19.464;2024-02-28T13:24:59;22.23;;;12.60;;
85131;SDS011;75493;51.772;19.464;2024-02-28T13:27:25;21.55;;;11.77;;
85131;SDS011;75493;51.772;19.464;2024-02-28T13:29:51;20.25;;;11.23;;
85131;SDS011;75493;51.772;19.464;2024-02-28T13:32:17;22.95;;;12.93;;
85131;SDS011;75493;51.772;19.464;2024-02-28T13:34:43;20.80;;;12.05;;
85131;SDS011;75493;51.772;19.464;2024-02-28T13:37:10;18.23;;;11.57;;
85131;SDS011;75493;51.772;19.464;2024-02-28T13:39:35;21.50;;;10.57;;
85131;SDS011;75493;51.772;19.464;2024-02-28T13:42:01;19.98;;;10.65;;
85131;SDS011;75493;51.772;19.464;2024-02-28T13:44:31;20.75;;;11.63;;
85131;SDS011;75493;51.772;19.464;2024-02-28T13:46:57;23.50;;;12.75;;
85131;SDS011;75493;51.772;19.464;2024-02-28T13:49:23;22.27;;;11.98;;
85131;SDS011;75493;51.772;19.464;2024-02-28T13:51:49;21.02;;;12.00;;
85131;SDS011;75493;51.772;19.464;2024-02-28T13:54:15;26.15;;;13.40;;
85131;SDS011;75493;51.772;19.464;2024-02-28T13:56:41;20.15;;;10.25;;
85131;SDS011;75493;51.772;19.464;2024-02-28T13:59:07;22.15;;;11.60;;
85131;SDS011;75493;51.772;19.464;2024-02-28T14:01:33;23.02;;;12.25;;
85131;SDS011;75493;51.772;19.464;2024-02-28T14:03:59;25.88;;;13.05;;
85131;SDS011;75493;51.772;19.464;2024-02-28T14:06:24;25.05;;;12.80;;
85131;SDS011;75493;51.772;19.464;2024-02-28T14:08:50;25.45;;;13.63;;